createdAt,value
2024-03-13T00:00:36.360Z,12.75
2024-03-13T00:03:03.315Z,5.43
2024-03-13T00:05:30.982Z,9.20
2024-03-13T00:07:57.983Z,11.65
2024-03-13T00:10:25.616Z,10.75
2024-03-13T00:12:52.732Z,12.25
2024-03-13T00:15:19.960Z,18.13
2024-03-13T00:17:46.836Z,61.97
2024-03-13T00:20:13.835Z,52.13
2024-03-13T00:22:42.276Z,25.70
2024-03-13T00:25:13.575Z,26.85
2024-03-13T00:27:43.366Z,41.50
2024-03-13T00:30:10.836Z,48.97
2024-03-13T00:32:37.785Z,95.43
2024-03-13T00:35:06.219Z,45.10
2024-03-13T00:37:33.332Z,51.70
2024-03-13T00:40:00.520Z,34.03
2024-03-13T00:42:27.596Z,38.13
2024-03-13T00:44:54.795Z,29.15
2024-03-13T00:47:24.492Z,19.02
2024-03-13T00:49:54.065Z,18.95
2024-03-13T00:52:21.529Z,8.43
2024-03-13T00:54:49.078Z,12.18
2024-03-13T00:57:18.834Z,15.65
2024-03-13T00:59:46.370Z,23.27
2024-03-13T01:02:13.705Z,22.83
2024-03-13T01:04:40.608Z,24.52
2024-03-13T01:07:10.315Z,29.80
2024-03-13T01:09:39.881Z,19.40
2024-03-13T01:12:07.629Z,14.07
2024-03-13T01:14:34.953Z,10.02
2024-03-13T01:17:04.124Z,19.67
2024-03-13T01:19:36.268Z,32.50
2024-03-13T01:22:14.767Z,21.55
2024-03-13T01:24:44.295Z,14.00
2024-03-13T01:27:11.908Z,11.05
2024-03-13T01:29:43.063Z,12.07
2024-03-13T01:32:10.828Z,196.00
2024-03-13T01:34:37.765Z,142.75
2024-03-13T01:37:23.251Z,133.10
2024-03-13T01:39:53.256Z,149.18
2024-03-13T01:42:38.606Z,153.43
2024-03-13T01:45:27.994Z,47.08
2024-03-13T01:48:17.002Z,24.42
2024-03-13T01:51:03.109Z,37.60
2024-03-13T01:53:48.552Z,52.95
2024-03-13T01:56:26.444Z,227.23
2024-03-13T01:59:04.622Z,207.18
2024-03-13T02:01:50.548Z,92.97
2024-03-13T02:04:18.170Z,231.35
2024-03-13T02:06:46.854Z,182.30
2024-03-13T02:09:13.735Z,195.57
2024-03-13T02:11:40.737Z,182.77
2024-03-13T02:14:08.454Z,101.25
2024-03-13T02:16:35.935Z,31.38
2024-03-13T02:19:04.124Z,46.80
2024-03-13T02:21:34.438Z,55.67
2024-03-13T02:24:01.557Z,22.90
2024-03-13T02:26:28.505Z,81.78
2024-03-13T02:28:55.398Z,64.10
2024-03-13T02:31:22.451Z,38.42
2024-03-13T02:33:49.544Z,30.70
2024-03-13T02:36:16.920Z,21.80
2024-03-13T02:38:46.364Z,17.65
2024-03-13T02:41:13.357Z,16.70
2024-03-13T02:43:42.404Z,25.40
2024-03-13T02:46:09.969Z,36.45
2024-03-13T02:48:38.128Z,23.98
2024-03-13T02:51:05.551Z,26.35
2024-03-13T02:53:33.005Z,22.35
2024-03-13T02:55:59.962Z,28.50
2024-03-13T02:58:27.236Z,23.58
2024-03-13T03:00:56.486Z,13.05
2024-03-13T03:03:23.794Z,16.02
2024-03-13T03:05:50.592Z,19.13
2024-03-13T03:08:18.229Z,16.00
2024-03-13T03:10:45.044Z,11.43
2024-03-13T03:13:12.225Z,14.93
2024-03-13T03:15:40.640Z,17.25
2024-03-13T03:18:10.816Z,21.83
2024-03-13T03:20:37.640Z,17.75
2024-03-13T03:23:05.102Z,18.35
2024-03-13T03:25:31.942Z,18.63
2024-03-13T03:27:58.830Z,15.82
2024-03-13T03:30:31.788Z,13.50
2024-03-13T03:33:02.628Z,14.40
2024-03-13T03:35:30.472Z,13.85
2024-03-13T03:37:58.027Z,15.02
2024-03-13T03:40:25.440Z,14.05
2024-03-13T03:42:52.707Z,19.23
2024-03-13T03:45:19.599Z,15.32
2024-03-13T03:47:51.699Z,15.93
2024-03-13T03:50:24.493Z,14.80
2024-03-13T03:52:51.344Z,16.27
2024-03-13T03:55:19.324Z,16.52
2024-03-13T03:57:46.843Z,15.77
2024-03-13T04:00:14.113Z,15.55
2024-03-13T04:02:43.922Z,18.30
2024-03-13T04:05:10.658Z,16.08
2024-03-13T04:07:40.128Z,18.70
2024-03-13T04:10:07.309Z,16.92
2024-03-13T04:12:35.309Z,16.92
2024-03-13T04:15:03.774Z,15.75
2024-03-13T04:17:30.729Z,15.38
2024-03-13T04:19:58.396Z,15.88
2024-03-13T04:22:27.869Z,15.07
2024-03-13T04:24:54.753Z,13.95
2024-03-13T04:27:21.474Z,15.10
2024-03-13T04:29:48.811Z,14.95
2024-03-13T04:32:15.794Z,17.73
2024-03-13T04:34:42.824Z,12.80
2024-03-13T04:37:09.745Z,15.32
2024-03-13T04:39:36.755Z,14.77
2024-03-13T04:42:06.071Z,18.15
2024-03-13T04:44:33.016Z,19.27
2024-03-13T04:46:59.869Z,16.52
2024-03-13T04:49:26.777Z,18.45
2024-03-13T04:51:53.628Z,20.10
2024-03-13T04:54:20.394Z,15.73
2024-03-13T04:56:47.382Z,16.63
2024-03-13T04:59:14.205Z,19.85
2024-03-13T05:01:41.114Z,18.15
2024-03-13T05:04:07.987Z,17.45
2024-03-13T05:06:34.863Z,20.80
2024-03-13T05:09:01.698Z,19.55
2024-03-13T05:11:28.749Z,21.20
2024-03-13T05:13:55.993Z,24.50
2024-03-13T05:16:23.081Z,27.92
2024-03-13T05:18:50.171Z,42.40
2024-03-13T05:21:17.601Z,42.30
2024-03-13T05:23:45.230Z,32.72
2024-03-13T05:26:12.882Z,26.55
2024-03-13T05:28:39.782Z,25.42
2024-03-13T05:31:11.121Z,25.77
2024-03-13T05:33:41.880Z,32.20
2024-03-13T05:36:12.844Z,39.38
2024-03-13T05:38:40.425Z,43.10
2024-03-13T05:41:07.550Z,33.15
2024-03-13T05:43:34.633Z,39.55
2024-03-13T05:46:01.537Z,36.20
2024-03-13T05:48:28.491Z,36.90
2024-03-13T05:50:57.807Z,36.25
2024-03-13T05:53:24.685Z,36.58
2024-03-13T05:55:51.690Z,41.50
2024-03-13T05:58:21.980Z,42.70
2024-03-13T06:00:49.032Z,43.83
2024-03-13T06:03:16.012Z,39.10
2024-03-13T06:05:42.821Z,39.90
2024-03-13T06:08:09.651Z,40.35
2024-03-13T06:10:36.710Z,42.25
2024-03-13T06:13:03.853Z,38.08
2024-03-13T06:15:30.954Z,34.75
2024-03-13T06:17:58.535Z,40.53
2024-03-13T06:20:25.454Z,44.67
2024-03-13T06:22:53.385Z,44.65
2024-03-13T06:25:20.399Z,44.92
2024-03-13T06:27:47.673Z,36.60
2024-03-13T06:30:14.666Z,36.72
2024-03-13T06:32:41.691Z,32.40
2024-03-13T06:35:08.705Z,30.55
2024-03-13T06:37:36.978Z,32.60
2024-03-13T06:40:05.567Z,33.13
2024-03-13T06:42:32.869Z,30.58
2024-03-13T06:44:59.811Z,31.58
2024-03-13T06:47:27.012Z,26.08
2024-03-13T06:49:53.868Z,24.83
2024-03-13T06:52:20.805Z,18.33
2024-03-13T06:54:47.802Z,16.63
2024-03-13T06:57:14.933Z,18.10
2024-03-13T06:59:46.334Z,16.35
2024-03-13T07:02:16.500Z,18.27
2024-03-13T07:04:43.832Z,15.95
2024-03-13T07:07:12.099Z,23.73
2024-03-13T07:09:39.106Z,25.95
2024-03-13T07:12:06.354Z,19.50
2024-03-13T07:14:33.303Z,17.08
2024-03-13T07:17:00.277Z,17.13
2024-03-13T07:19:27.395Z,19.85
2024-03-13T07:21:54.414Z,32.20
2024-03-13T07:24:21.751Z,27.60
2024-03-13T07:26:48.637Z,17.17
2024-03-13T07:29:15.511Z,17.77
2024-03-13T07:31:43.080Z,23.08
2024-03-13T07:34:11.708Z,23.30
2024-03-13T07:39:12.764Z,14.90
2024-03-13T07:41:41.406Z,22.20
2024-03-13T07:44:09.207Z,25.88
2024-03-13T07:46:36.363Z,20.10
2024-03-13T07:49:04.263Z,23.33
2024-03-13T07:51:31.412Z,27.48
2024-03-13T07:53:58.443Z,27.30
2024-03-13T07:56:25.456Z,20.30
2024-03-13T07:58:52.769Z,18.92
2024-03-13T08:01:20.303Z,10.88
2024-03-13T08:03:48.346Z,11.93
2024-03-13T09:06:44.041Z,1.80
2024-03-13T09:09:10.939Z,2.22
2024-03-13T09:11:39.122Z,1.27
2024-03-13T09:14:08.968Z,2.75
2024-03-13T09:16:37.381Z,1.45
2024-03-13T09:24:00.004Z,4.05
2024-03-13T09:26:27.125Z,1.98
2024-03-13T09:28:56.687Z,1.75
2024-03-13T09:31:25.686Z,1.58
2024-03-13T09:33:52.988Z,1.20
2024-03-13T09:36:20.516Z,1.40
2024-03-13T09:38:47.428Z,0.93
2024-03-13T09:41:17.862Z,3.40
2024-03-13T09:43:46.250Z,2.25
2024-03-13T09:46:15.199Z,1.13
2024-03-13T09:48:44.061Z,0.68
2024-03-13T09:51:11.838Z,1.17
2024-03-13T09:53:41.890Z,1.15
2024-03-13T09:56:15.886Z,1.83
2024-03-13T09:58:46.928Z,1.73
2024-03-13T10:01:37.165Z,1.30
2024-03-13T10:04:12.086Z,1.92
2024-03-13T10:06:40.428Z,1.20
2024-03-13T10:09:25.330Z,1.05
2024-03-13T10:11:53.361Z,1.08
2024-03-13T10:14:21.476Z,1.65
2024-03-13T10:16:52.936Z,2.08
2024-03-13T10:19:22.804Z,1.02
2024-03-13T10:21:51.232Z,1.10
2024-03-13T10:24:20.177Z,0.77
2024-03-13T10:26:47.794Z,1.02
2024-03-13T10:29:14.673Z,0.70
2024-03-13T10:31:41.696Z,1.20
2024-03-13T10:34:09.794Z,5.43
2024-03-13T10:36:38.568Z,3.35
2024-03-13T10:39:06.923Z,0.35
2024-03-13T10:44:01.470Z,0.70
2024-03-13T10:46:28.266Z,3.30
2024-03-13T10:48:55.598Z,1.23
2024-03-13T10:51:24.724Z,1.90
2024-03-13T10:53:51.754Z,2.30
2024-03-13T10:56:20.109Z,2.90
2024-03-13T10:58:50.888Z,4.43
2024-03-13T11:01:19.187Z,5.30
2024-03-13T11:03:47.480Z,2.80
2024-03-13T11:06:16.621Z,5.05
2024-03-13T11:08:43.991Z,2.17
2024-03-13T11:11:20.855Z,0.93
2024-03-13T11:13:55.605Z,2.40
2024-03-13T11:16:24.623Z,4.03
2024-03-13T11:18:52.078Z,1.90
2024-03-13T11:21:48.225Z,0.90
2024-03-13T11:24:16.867Z,0.70
2024-03-13T11:26:43.782Z,1.92
2024-03-13T11:29:13.269Z,1.65
2024-03-13T11:31:41.760Z,1.75
2024-03-13T11:36:36.337Z,1.20
2024-03-13T11:39:05.178Z,1.85
2024-03-13T11:41:32.858Z,3.88
2024-03-13T11:43:59.942Z,2.08
2024-03-13T11:46:35.105Z,1.95
2024-03-13T11:49:07.617Z,4.88
2024-03-13T11:51:37.640Z,3.65
2024-03-13T11:54:14.210Z,4.32
2024-03-13T11:56:44.012Z,4.10
2024-03-13T11:59:17.989Z,5.00
2024-03-13T12:01:46.181Z,4.07
2024-03-13T12:04:13.104Z,2.38
2024-03-13T12:06:43.221Z,2.83
2024-03-13T12:09:12.759Z,1.75
2024-03-13T12:11:39.809Z,2.05
2024-03-13T12:14:06.862Z,3.10
2024-03-13T12:16:33.724Z,1.00
2024-03-13T12:19:00.817Z,2.55
2024-03-13T12:21:27.863Z,0.73
2024-03-13T12:23:55.182Z,3.33
2024-03-13T12:26:22.152Z,2.67
2024-03-13T12:28:51.969Z,6.20
2024-03-13T12:31:19.316Z,4.03
2024-03-13T12:33:49.889Z,5.15
2024-03-13T12:36:19.315Z,4.97
2024-03-13T12:38:46.360Z,6.57
2024-03-13T12:41:13.455Z,5.63
2024-03-13T12:43:44.586Z,1.80
2024-03-13T12:46:15.520Z,2.22
2024-03-13T12:48:42.865Z,2.58
2024-03-13T12:51:09.791Z,4.80
2024-03-13T12:53:38.534Z,1.67
2024-03-13T12:56:09.684Z,3.28
2024-03-13T12:58:37.041Z,1.85
2024-03-13T13:01:06.100Z,2.85
2024-03-13T13:03:33.477Z,4.50
2024-03-13T13:06:01.536Z,6.43
2024-03-13T13:08:29.888Z,12.85
2024-03-13T13:10:58.381Z,14.07
2024-03-13T13:13:27.496Z,5.30
2024-03-13T13:15:54.609Z,3.00
2024-03-13T13:18:21.753Z,5.80
2024-03-13T13:20:48.995Z,4.45
2024-03-13T13:23:15.758Z,13.90
2024-03-13T13:25:42.647Z,3.72
2024-03-13T13:28:13.646Z,7.30
2024-03-13T13:30:45.651Z,3.22
2024-03-13T13:33:12.935Z,5.38
2024-03-13T13:35:44.341Z,4.38
2024-03-13T13:38:13.403Z,3.92
2024-03-13T13:43:10.749Z,5.07
2024-03-13T13:45:37.876Z,6.68
2024-03-13T13:48:08.214Z,8.60
2024-03-13T13:50:35.010Z,4.65
2024-03-13T13:53:01.825Z,7.15
2024-03-13T13:55:28.738Z,8.98
2024-03-13T13:57:55.585Z,6.40
2024-03-13T14:00:24.744Z,6.28
2024-03-13T14:02:54.253Z,4.85
2024-03-13T14:05:22.010Z,6.03
2024-03-13T14:07:50.485Z,5.88
2024-03-13T14:10:17.275Z,3.72
2024-03-13T14:12:44.706Z,4.38
2024-03-13T14:15:13.150Z,5.75
2024-03-13T14:17:40.711Z,7.45
2024-03-13T14:20:13.724Z,6.35
2024-03-13T14:22:42.296Z,7.65
2024-03-13T14:27:36.810Z,5.88
2024-03-13T14:30:04.632Z,6.05
2024-03-13T14:32:32.083Z,5.60
2024-03-13T14:35:07.675Z,6.00
2024-03-13T14:37:36.104Z,4.80
2024-03-13T14:40:07.475Z,6.40
2024-03-13T14:42:36.149Z,9.43
2024-03-13T14:45:03.940Z,7.88
2024-03-13T14:47:31.080Z,9.80
2024-03-13T14:49:57.992Z,9.32
2024-03-13T14:52:25.404Z,5.57
2024-03-13T14:54:55.388Z,3.95
2024-03-13T14:57:23.627Z,5.10
2024-03-13T14:59:51.321Z,4.97
2024-03-13T15:02:19.559Z,2.25
2024-03-13T15:04:47.844Z,6.68
2024-03-13T15:07:15.991Z,4.45
2024-03-13T15:09:43.781Z,4.25
2024-03-13T15:12:15.573Z,4.10
2024-03-13T15:14:44.686Z,4.45
2024-03-13T15:17:12.470Z,4.18
2024-03-13T15:19:40.215Z,6.28
2024-03-13T15:22:07.399Z,2.70
2024-03-13T15:24:34.630Z,4.10
2024-03-13T15:27:03.121Z,4.72
2024-03-13T15:29:30.293Z,6.78
2024-03-13T15:31:57.156Z,8.85
2024-03-13T15:34:23.998Z,29.85
2024-03-13T15:36:50.801Z,22.42
2024-03-13T15:39:18.105Z,11.00
2024-03-13T15:41:45.467Z,12.43
2024-03-13T15:44:13.556Z,8.90
2024-03-13T15:46:42.992Z,7.03
2024-03-13T15:49:12.850Z,10.10
2024-03-13T15:51:40.365Z,13.05
2024-03-13T15:54:07.733Z,13.77
2024-03-13T15:56:35.564Z,10.13
2024-03-13T15:59:02.467Z,26.17
2024-03-13T16:01:29.489Z,27.75
2024-03-13T16:03:56.361Z,19.98
2024-03-13T16:06:23.770Z,12.95
2024-03-13T16:09:02.767Z,8.98
2024-03-13T16:11:31.510Z,11.90
2024-03-13T16:16:31.511Z,14.45
2024-03-13T16:18:58.957Z,3.72
2024-03-13T16:21:29.212Z,6.05
2024-03-13T16:23:56.388Z,9.23
2024-03-13T16:26:24.970Z,9.15
2024-03-13T16:28:55.574Z,10.45
2024-03-13T16:31:25.187Z,8.55
2024-03-13T16:33:53.986Z,18.33
2024-03-13T16:36:21.362Z,26.52
2024-03-13T16:38:48.672Z,15.05
2024-03-13T16:41:15.918Z,14.45
2024-03-13T16:43:43.020Z,17.55
2024-03-13T16:46:10.634Z,19.25
2024-03-13T16:48:38.280Z,15.75
2024-03-13T16:51:08.282Z,13.40
2024-03-13T16:53:35.306Z,15.20
2024-03-13T16:56:02.740Z,16.50
2024-03-13T16:58:30.448Z,10.75
2024-03-13T17:00:57.514Z,15.90
2024-03-13T17:03:24.440Z,18.63
2024-03-13T17:05:52.622Z,31.77
2024-03-13T17:08:19.852Z,21.83
2024-03-13T17:10:49.881Z,30.80
2024-03-13T17:13:17.181Z,30.88
2024-03-13T17:15:44.980Z,21.10
2024-03-13T17:18:12.460Z,26.05
2024-03-13T17:20:39.565Z,33.97
2024-03-13T17:23:06.384Z,34.22
2024-03-13T17:25:33.374Z,29.02
2024-03-13T17:28:00.539Z,24.67
2024-03-13T17:30:27.357Z,21.33
2024-03-13T17:32:55.109Z,19.35
2024-03-13T17:35:22.052Z,18.58
2024-03-13T17:37:52.466Z,22.33
2024-03-13T17:40:21.468Z,19.58
2024-03-13T17:42:48.678Z,16.17
2024-03-13T17:45:18.346Z,17.88
2024-03-13T17:47:46.070Z,13.88
2024-03-13T17:50:15.034Z,23.48
2024-03-13T17:52:42.077Z,39.22
2024-03-13T17:55:09.125Z,21.95
2024-03-13T17:57:39.184Z,13.57
2024-03-13T18:00:08.680Z,15.20
2024-03-13T18:02:36.704Z,15.48
2024-03-13T18:05:04.391Z,18.58
2024-03-13T18:07:31.491Z,16.95
2024-03-13T18:09:58.339Z,18.08
2024-03-13T18:12:26.281Z,11.18
2024-03-13T18:14:54.468Z,6.97
2024-03-13T18:17:23.533Z,7.30
2024-03-13T18:19:50.508Z,9.05
2024-03-13T18:22:23.034Z,10.32
2024-03-13T18:24:50.867Z,9.82
2024-03-13T18:27:17.880Z,11.23
2024-03-13T18:29:44.798Z,14.05
2024-03-13T18:32:11.667Z,13.68
2024-03-13T18:34:40.307Z,18.70
2024-03-13T18:37:08.362Z,22.52
2024-03-13T18:39:35.445Z,17.63
2024-03-13T18:42:02.640Z,17.15
2024-03-13T18:44:29.539Z,19.70
2024-03-13T18:46:56.441Z,25.88
2024-03-13T18:49:23.424Z,20.52
2024-03-13T18:51:52.609Z,22.77
2024-03-13T18:54:22.634Z,20.73
2024-03-13T18:56:50.066Z,19.95
2024-03-13T18:59:16.970Z,16.63
2024-03-13T19:01:43.765Z,18.48
2024-03-13T19:04:12.074Z,19.00
2024-03-13T19:06:42.442Z,22.00
2024-03-13T19:09:10.409Z,20.35
2024-03-13T19:11:37.525Z,20.67
2024-03-13T19:14:05.167Z,16.20
2024-03-13T19:16:32.434Z,20.80
2024-03-13T19:19:00.084Z,24.67
2024-03-13T19:21:27.106Z,26.65
2024-03-13T19:23:54.075Z,23.95
2024-03-13T19:26:23.390Z,30.27
2024-03-13T19:28:52.379Z,22.55
2024-03-13T19:31:26.892Z,24.38
2024-03-13T19:33:58.052Z,26.27
2024-03-13T19:36:27.722Z,25.73
2024-03-13T19:38:54.643Z,22.98
2024-03-13T19:41:21.958Z,26.23
2024-03-13T19:43:49.183Z,26.20
2024-03-13T19:46:16.164Z,18.05
2024-03-13T19:48:43.105Z,14.15
2024-03-13T19:51:10.920Z,25.98
2024-03-13T19:53:39.190Z,34.22
2024-03-13T19:56:08.098Z,28.38
2024-03-13T19:58:36.006Z,38.95
2024-03-13T20:01:02.799Z,18.27
2024-03-13T20:03:29.784Z,18.67
2024-03-13T20:05:57.173Z,19.00
2024-03-13T20:08:24.616Z,16.85
2024-03-13T20:13:18.815Z,23.08
2024-03-13T20:15:46.334Z,23.50
2024-03-13T20:18:13.586Z,26.40
2024-03-13T20:20:41.570Z,26.05
2024-03-13T20:23:09.320Z,33.78
2024-03-13T20:25:37.650Z,66.93
2024-03-13T20:28:14.004Z,35.88
2024-03-13T20:30:41.328Z,61.42
2024-03-13T20:33:14.249Z,25.92
2024-03-13T20:35:41.336Z,22.50
2024-03-13T20:38:08.309Z,20.25
2024-03-13T20:40:35.963Z,18.60
2024-03-13T20:43:04.007Z,20.40
2024-03-13T20:45:31.087Z,21.15
2024-03-13T20:47:59.055Z,31.17
2024-03-13T20:50:26.033Z,23.48
2024-03-13T20:52:52.815Z,27.10
2024-03-13T20:55:19.826Z,19.73
2024-03-13T20:57:46.969Z,13.77
2024-03-13T21:00:18.933Z,14.60
2024-03-13T21:02:46.103Z,26.13
2024-03-13T21:05:12.974Z,22.45
2024-03-13T21:07:40.399Z,25.98
2024-03-13T21:10:10.243Z,25.30
2024-03-13T21:12:38.309Z,20.60
2024-03-13T21:15:06.813Z,25.50
2024-03-13T21:17:36.431Z,20.27
2024-03-13T21:20:11.092Z,23.65
2024-03-13T21:22:39.331Z,34.22
2024-03-13T21:25:07.095Z,32.00
2024-03-13T21:27:34.022Z,24.52
2024-03-13T21:30:01.028Z,15.95
2024-03-13T21:32:29.208Z,15.18
2024-03-13T21:34:56.112Z,13.73
2024-03-13T21:37:24.894Z,15.65
2024-03-13T21:39:52.601Z,17.50
2024-03-13T21:42:19.442Z,17.13
2024-03-13T21:44:46.491Z,15.45
2024-03-13T21:47:13.795Z,13.48
2024-03-13T21:49:40.647Z,14.20
2024-03-13T21:52:07.509Z,29.15
2024-03-13T21:54:34.464Z,54.60
2024-03-13T21:57:04.094Z,24.33
2024-03-13T21:59:31.224Z,27.55
2024-03-13T22:01:58.481Z,30.05
2024-03-13T22:04:26.889Z,15.25
2024-03-13T22:06:53.870Z,19.90
2024-03-13T22:09:20.602Z,20.65
2024-03-13T22:11:47.494Z,25.95
2024-03-13T22:14:14.393Z,22.20
2024-03-13T22:16:41.260Z,26.88
2024-03-13T22:19:08.278Z,27.40
2024-03-13T22:21:35.385Z,24.50
2024-03-13T22:24:02.380Z,34.67
2024-03-13T22:26:29.226Z,24.00
2024-03-13T22:28:56.070Z,32.80
2024-03-13T22:31:22.962Z,43.50
2024-03-13T22:33:49.960Z,51.28
2024-03-13T22:36:16.937Z,44.00
2024-03-13T22:38:44.021Z,35.47
2024-03-13T22:41:11.069Z,27.92
2024-03-13T22:43:37.897Z,15.73
2024-03-13T22:46:05.753Z,12.38
2024-03-13T22:48:33.278Z,13.40
2024-03-13T22:51:00.432Z,19.92
2024-03-13T22:53:27.863Z,32.78
2024-03-13T22:55:54.713Z,21.25
2024-03-13T22:58:22.326Z,20.20
2024-03-13T23:00:59.069Z,16.98
2024-03-13T23:03:27.854Z,14.40
2024-03-13T23:05:54.932Z,8.30
2024-03-13T23:08:21.749Z,10.68
2024-03-13T23:10:48.646Z,8.93
2024-03-13T23:13:16.631Z,11.43
2024-03-13T23:18:11.337Z,24.52
2024-03-13T23:20:38.485Z,25.50
2024-03-13T23:23:09.295Z,21.90
2024-03-13T23:25:36.716Z,23.88
2024-03-13T23:28:07.566Z,39.38
2024-03-13T23:30:34.700Z,114.28
2024-03-13T23:33:02.206Z,60.45
2024-03-13T23:35:29.603Z,100.85
2024-03-13T23:37:56.659Z,61.33
2024-03-13T23:40:23.519Z,58.55
2024-03-13T23:42:52.442Z,123.03
2024-03-13T23:47:46.544Z,107.60
2024-03-13T23:50:14.162Z,68.65
2024-03-13T23:52:41.244Z,79.22
2024-03-13T23:55:08.365Z,64.80
2024-03-13T23:57:35.625Z,46.95
